Linwood, Kansas
Current Conditions -  °F | °C
As of 12:52 AM on Sunday 21 Dec 2014 (Local Time) from KLWC Reporting Station
Clear Clear  
Wind Chill: 29°   Ceiling: Unl
Heat Index: 35°   Visibility: 7mi
Dew Point: 32°   Wind: 8mph
Humidity: 89%   Direction: 180°S
Pressure: 30.09"   Gusts: NA
Location:  39°N, 95.04°W
Report Text: KLWC 210652Z AUTO 18007KT 7SM CLR 02/00 A3009 RMK AO2 SLP194 T00170000
Loading
Personal Weather Stations






























Interactive Weather Map New forecast layout! Learn more

10-Day Weather Forecast

Advertisements
Track Severe Weather on mobile